Time;durP1;ratioP1;P1;durP2;ratioP2;P2;SDS_P1;SDS_P2;PMS_P1;PMS_P2;Temp;Humidity;BMP_temperature;BMP_pressure;BME280_temperature;BME280_humidity;BME280_pressure;Samples;Min_cycle;Max_cycle;Signal;HPM_P1;HPM_P2
2023/10/22 00:02:15;;;;;;;;;11.60;10.00;;;;;19.92;100.00;97649.34;6237592;28;99224;-64
2023/10/22 00:05:18;;;;;;;;;13.00;11.60;;;;;19.93;100.00;97648.25;6240564;28;96288;-64
2023/10/22 00:08:21;;;;;;;;;11.60;10.40;;;;;19.94;100.00;97649.06;6239146;28;96701;-64
2023/10/22 00:11:24;;;;;;;;;8.40;8.40;;;;;19.92;100.00;97654.81;6246194;28;96688;-64
2023/10/22 00:14:27;;;;;;;;;9.50;7.75;;;;;19.93;100.00;97652.91;6264960;27;96921;-64
2023/10/22 00:17:32;;;;;;;;;13.00;11.00;;;;;19.90;100.00;97644.19;6249914;28;96985;-64
2023/10/22 00:20:37;;;;;;;;;9.60;9.00;;;;;19.88;100.00;97643.72;6250563;28;96744;-64
2023/10/22 00:23:41;;;;;;;;;10.00;10.00;;;;;19.87;100.00;97644.00;6243134;28;96421;-62
2023/10/22 00:26:44;;;;;;;;;14.00;13.00;;;;;19.87;100.00;97639.34;6252681;27;96470;-68
2023/10/22 00:29:47;;;;;;;;;14.50;13.00;;;;;19.81;100.00;97640.59;6235789;28;96370;-68
2023/10/22 00:32:52;;;;;;;;;12.00;11.00;;;;;19.81;100.00;97632.38;6214175;28;96392;-68
2023/10/22 00:35:56;;;;;;;;;12.00;11.60;;;;;19.83;100.00;97632.91;6228006;28;97214;-69
2023/10/22 00:39:00;;;;;;;;;13.00;12.00;;;;;19.86;100.00;97643.19;6235934;28;99490;-69
2023/10/22 00:42:03;;;;;;;;;13.33;13.00;;;;;19.85;100.00;97647.06;6219135;28;96833;-69
2023/10/22 00:45:08;;;;;;;;;10.20;10.00;;;;;19.85;100.00;97636.09;6237258;27;96340;-68
2023/10/22 00:48:13;;;;;;;;;12.00;11.00;;;;;19.86;100.00;97637.72;6236132;28;96363;-68
2023/10/22 00:51:17;;;;;;;;;12.40;11.40;;;;;19.86;100.00;97637.72;6217336;28;98704;-69
2023/10/22 00:54:20;;;;;;;;;12.00;11.00;;;;;19.82;100.00;97642.22;6212763;28;96849;-68
2023/10/22 00:57:24;;;;;;;;;10.00;9.80;;;;;19.80;100.00;97638.97;6211114;28;96500;-69
2023/10/22 01:00:28;;;;;;;;;12.25;11.50;;;;;19.82;100.00;97628.53;6222708;28;97311;-62
2023/10/22 01:03:33;;;;;;;;;12.50;10.50;;;;;19.83;100.00;97635.63;6247554;22;96375;-68
2023/10/22 01:06:36;;;;;;;;;12.00;11.00;;;;;19.85;100.00;97627.09;6212435;28;96411;-69
2023/10/22 01:09:40;;;;;;;;;14.40;13.00;;;;;19.86;100.00;97617.78;6211196;28;96783;-69
2023/10/22 01:12:43;;;;;;;;;15.00;14.00;;;;;19.84;100.00;97606.34;6210739;28;98472;-69
2023/10/22 01:15:46;;;;;;;;;15.75;14.75;;;;;19.83;100.00;97588.34;6212361;28;96323;-69
2023/10/22 01:18:51;;;;;;;;;14.00;14.00;;;;;19.82;100.00;97593.00;6212047;28;96814;-69
2023/10/22 01:21:54;;;;;;;;;13.00;13.00;;;;;19.79;100.00;97576.41;6211690;28;96350;-69
2023/10/22 01:24:59;;;;;;;;;12.50;11.00;;;;;19.80;100.00;97583.47;6214027;28;96278;-69
2023/10/22 01:28:02;;;;;;;;;11.60;11.00;;;;;19.79;100.00;97584.59;6216471;28;96284;-68
2023/10/22 01:31:08;;;;;;;;;14.00;12.50;;;;;19.77;100.00;97581.38;6193103;28;97148;-69
2023/10/22 01:34:12;;;;;;;;;10.20;9.20;;;;;19.77;100.00;97579.44;6215369;28;96499;-69
2023/10/22 01:37:15;;;;;;;;;10.00;9.20;;;;;19.70;100.00;97575.53;6197882;28;99273;-69
2023/10/22 01:40:19;;;;;;;;;11.00;8.80;;;;;19.64;100.00;97574.88;6215376;28;96871;-68
2023/10/22 01:43:22;;;;;;;;;10.50;10.00;;;;;19.64;100.00;97577.59;6215558;28;96630;-69
2023/10/22 01:46:26;;;;;;;;;11.00;10.00;;;;;19.59;100.00;97569.53;6215469;28;97366;-69
2023/10/22 01:49:29;;;;;;;;;10.60;8.60;;;;;19.57;100.00;97560.00;6213733;28;97349;-69
2023/10/22 01:52:32;;;;;;;;;11.60;10.60;;;;;19.54;100.00;97545.06;6213919;28;96710;-69
2023/10/22 01:55:37;;;;;;;;;9.50;9.25;;;;;19.54;100.00;97536.03;6197855;28;97275;-69
2023/10/22 01:58:40;;;;;;;;;12.00;11.00;;;;;19.55;100.00;97537.66;6214625;28;97037;-69
2023/10/22 02:01:43;;;;;;;;;12.00;11.00;;;;;19.51;100.00;97534.72;6213269;28;96495;-69
2023/10/22 02:04:46;;;;;;;;;11.00;9.50;;;;;19.43;100.00;97535.47;6197214;28;98539;-69
2023/10/22 02:07:50;;;;;;;;;10.60;10.60;;;;;19.30;100.00;97542.59;6215088;28;96771;-69
2023/10/22 02:10:54;;;;;;;;;12.00;11.00;;;;;19.24;100.00;97546.59;6213570;28;96714;-69
2023/10/22 02:13:58;;;;;;;;;11.00;10.67;;;;;19.29;100.00;97521.06;6214425;28;96401;-72
2023/10/22 02:17:01;;;;;;;;;9.80;9.40;;;;;19.32;100.00;97526.69;6214437;28;96188;-72
2023/10/22 02:20:08;;;;;;;;;11.20;10.80;;;;;19.31;100.00;97529.72;6226835;28;96292;-72
2023/10/22 02:23:12;;;;;;;;;13.00;12.40;;;;;19.33;100.00;97533.78;6215524;28;96705;-71
2023/10/22 02:26:17;;;;;;;;;10.60;10.00;;;;;19.33;100.00;97524.78;6213611;28;96421;-71
2023/10/22 02:29:20;;;;;;;;;10.00;9.00;;;;;19.28;100.00;97513.97;6213500;28;97041;-71
2023/10/22 02:32:23;;;;;;;;;10.60;10.60;;;;;19.27;100.00;97509.63;6213943;28;96392;-71
2023/10/22 02:35:26;;;;;;;;;8.00;8.00;;;;;19.30;100.00;97515.25;6212810;28;97254;-72
2023/10/22 02:38:30;;;;;;;;;11.20;10.60;;;;;19.32;100.00;97520.44;6215398;28;96959;-71
2023/10/22 02:41:34;;;;;;;;;8.00;8.00;;;;;19.35;100.00;97528.00;6218714;28;96970;-71
2023/10/22 02:44:37;;;;;;;;;11.40;11.40;;;;;19.37;100.00;97531.22;6214735;28;96374;-71
2023/10/22 02:47:41;;;;;;;;;11.00;10.00;;;;;19.35;100.00;97530.75;6196249;28;96717;-71
2023/10/22 02:50:44;;;;;;;;;9.75;9.00;;;;;19.35;100.00;97530.75;6196338;28;96588;-71
2023/10/22 02:53:47;;;;;;;;;10.75;10.00;;;;;19.33;100.00;97543.91;6213867;28;96326;-71
2023/10/22 02:56:52;;;;;;;;;9.80;9.40;;;;;19.32;100.00;97537.63;6214253;28;96516;-71
2023/10/22 02:59:58;;;;;;;;;11.00;10.40;;;;;19.35;100.00;97528.78;6213683;28;96450;-71
2023/10/22 03:03:01;;;;;;;;;9.00;8.00;;;;;19.40;100.00;97527.88;6194617;28;96855;-71
2023/10/22 03:06:04;;;;;;;;;10.00;10.00;;;;;19.32;100.00;97514.97;6229260;28;96710;-71
2023/10/22 03:09:08;;;;;;;;;8.00;8.00;;;;;19.42;100.00;97525.63;6213095;28;96545;-71
2023/10/22 03:12:13;;;;;;;;;11.00;10.75;;;;;19.50;100.00;97530.38;6214156;28;96354;-71
2023/10/22 03:15:16;;;;;;;;;10.20;9.00;;;;;19.49;100.00;97526.03;6213055;28;97302;-71
2023/10/22 03:18:20;;;;;;;;;9.00;8.00;;;;;19.45;100.00;97514.09;6212462;28;96709;-71
2023/10/22 03:21:25;;;;;;;;;9.00;8.00;;;;;19.49;100.00;97508.84;6212441;28;98392;-71
2023/10/22 03:24:28;;;;;;;;;9.60;7.80;;;;;19.44;100.00;97501.56;6212329;28;97588;-70
2023/10/22 03:27:33;;;;;;;;;11.00;11.00;;;;;19.50;100.00;97497.56;6212299;28;96369;-69
2023/10/22 03:30:37;;;;;;;;;8.00;7.00;;;;;19.43;100.00;97494.47;6213813;28;96422;-69
2023/10/22 03:33:40;;;;;;;;;10.25;10.00;;;;;19.51;100.00;97510.13;6211273;28;96682;-70
2023/10/22 03:36:45;;;;;;;;;9.00;8.00;;;;;19.52;100.00;97508.19;6211964;28;96421;-69
2023/10/22 03:39:48;;;;;;;;;10.00;9.00;;;;;19.51;100.00;97507.38;6211961;28;98050;-69
2023/10/22 03:42:53;;;;;;;;;12.60;10.00;;;;;19.50;100.00;97505.78;6212472;28;96240;-69
2023/10/22 03:45:56;;;;;;;;;8.20;8.20;;;;;19.43;100.00;97502.66;6188851;28;96416;-69
2023/10/22 03:48:59;;;;;;;;;11.25;10.25;;;;;19.49;100.00;97500.63;6188768;28;96288;-69
2023/10/22 03:52:05;;;;;;;;;11.00;11.00;;;;;19.50;100.00;97516.69;6202384;28;96886;-69
2023/10/22 03:55:09;;;;;;;;;13.40;12.40;;;;;19.49;100.00;97485.03;6211439;28;96724;-69
2023/10/22 03:58:13;;;;;;;;;10.00;9.00;;;;;19.48;100.00;97486.16;6211275;28;97745;-69
2023/10/22 04:01:16;;;;;;;;;11.00;10.00;;;;;19.43;100.00;97492.53;6212275;28;96551;-71
2023/10/22 04:04:20;;;;;;;;;14.40;12.60;;;;;19.41;100.00;97499.41;6210642;28;97607;-69
2023/10/22 04:07:23;;;;;;;;;9.60;9.60;;;;;19.35;100.00;97496.00;6194270;28;96756;-70
2023/10/22 04:10:26;;;;;;;;;9.00;8.00;;;;;19.37;100.00;97482.84;6211632;28;96392;-69
2023/10/22 04:13:30;;;;;;;;;12.50;12.00;;;;;19.39;100.00;97463.41;6211149;28;96367;-70
2023/10/22 04:16:34;;;;;;;;;9.00;8.00;;;;;19.39;100.00;97447.81;6212519;28;96331;-70
2023/10/22 04:19:38;;;;;;;;;12.20;12.00;;;;;19.40;100.00;97460.34;6211514;28;96151;-70
2023/10/22 04:22:43;;;;;;;;;13.00;12.00;;;;;19.40;100.00;97473.22;6211601;28;96534;-69
2023/10/22 04:25:46;;;;;;;;;12.40;11.00;;;;;19.40;100.00;97478.69;6208007;28;96372;-70
2023/10/22 04:28:51;;;;;;;;;9.25;9.00;;;;;19.33;100.00;97500.19;6211395;28;96656;-69
2023/10/22 04:31:54;;;;;;;;;11.00;10.00;;;;;19.29;100.00;97478.16;6209822;28;96636;-69
2023/10/22 04:34:57;;;;;;;;;9.00;8.60;;;;;19.31;100.00;97488.75;6209751;28;96841;-68
2023/10/22 04:38:00;;;;;;;;;10.00;9.60;;;;;19.04;100.00;97468.66;6211949;28;96390;-70
2023/10/22 04:41:10;;;;;;;;;9.00;8.00;;;;;19.24;100.00;97485.66;6210123;28;96724;-68
2023/10/22 04:44:14;;;;;;;;;11.00;10.00;;;;;19.19;100.00;97505.72;6194552;28;98432;-69
2023/10/22 04:47:18;;;;;;;;;12.00;11.20;;;;;19.08;100.00;97517.19;6210410;28;96627;-68
2023/10/22 04:50:21;;;;;;;;;9.25;9.00;;;;;19.05;100.00;97524.09;6210268;28;96715;-68
2023/10/22 04:53:24;;;;;;;;;15.00;14.00;;;;;19.03;100.00;97509.94;6211130;28;96574;-68
2023/10/22 04:56:28;;;;;;;;;11.33;9.33;;;;;19.09;100.00;97499.69;6211129;28;96841;-68
2023/10/22 04:59:32;;;;;;;;;12.00;11.00;;;;;19.11;100.00;97511.13;6214025;28;96326;-68
2023/10/22 05:02:36;;;;;;;;;10.67;9.67;;;;;19.13;100.00;97519.81;6211873;28;96394;-69
2023/10/22 05:05:39;;;;;;;;;8.75;8.75;;;;;19.20;100.00;97526.47;6213754;28;96981;-68
2023/10/22 05:08:42;;;;;;;;;10.00;10.00;;;;;19.20;100.00;97521.00;6213682;28;96961;-69
2023/10/22 05:11:45;;;;;;;;;11.80;10.80;;;;;19.22;100.00;97532.41;6196176;28;98477;-69
2023/10/22 05:14:50;;;;;;;;;9.80;8.20;;;;;19.21;100.00;97513.59;6215457;28;96503;-68
2023/10/22 05:17:55;;;;;;;;;10.00;9.00;;;;;19.21;100.00;97508.13;6216349;28;96340;-68
2023/10/22 05:21:01;;;;;;;;;10.50;9.00;;;;;19.16;100.00;97519.16;6214496;28;96770;-68
2023/10/22 05:24:06;;;;;;;;;11.25;10.25;;;;;19.15;100.00;97515.66;6216164;28;96276;-68
2023/10/22 05:27:09;;;;;;;;;8.40;8.00;;;;;19.21;100.00;97519.84;6215339;28;96706;-68
2023/10/22 05:30:15;;;;;;;;;10.00;9.00;;;;;19.24;100.00;97504.78;6214241;28;96728;-68
2023/10/22 05:33:18;;;;;;;;;8.00;7.20;;;;;19.25;100.00;97503.69;6214995;28;96359;-68
2023/10/22 05:36:22;;;;;;;;;10.00;10.00;;;;;19.26;100.00;97513.47;6214040;28;96972;-68
2023/10/22 05:39:25;;;;;;;;;7.00;7.00;;;;;19.29;100.00;97513.66;6214435;28;96704;-68
2023/10/22 05:42:28;;;;;;;;;9.00;8.00;;;;;19.29;100.00;97513.66;6197488;28;99017;-68
2023/10/22 05:45:33;;;;;;;;;9.00;9.00;;;;;19.18;100.00;97495.09;6214989;28;96580;-68
2023/10/22 05:48:36;;;;;;;;;11.40;10.00;;;;;19.27;100.00;97509.63;6210789;28;96700;-68
2023/10/22 05:51:39;;;;;;;;;9.60;8.00;;;;;19.28;100.00;97498.38;6212089;28;96653;-68
2023/10/22 05:54:42;;;;;;;;;7.00;6.00;;;;;19.30;100.00;97492.63;6196992;28;98484;-67
2023/10/22 05:57:46;;;;;;;;;7.80;6.80;;;;;19.34;100.00;97490.88;6206295;28;97033;-68
2023/10/22 06:00:51;;;;;;;;;9.00;8.00;;;;;19.35;100.00;97498.75;6211990;28;96943;-68
2023/10/22 06:03:54;;;;;;;;;9.75;9.25;;;;;19.34;100.00;97513.53;6211330;28;96548;-69
2023/10/22 06:06:57;;;;;;;;;10.00;9.80;;;;;19.33;100.00;97511.91;6212224;28;97074;-68
2023/10/22 06:10:00;;;;;;;;;13.50;11.50;;;;;19.32;100.00;97520.44;6211219;28;97162;-68
2023/10/22 06:13:03;;;;;;;;;7.60;7.60;;;;;19.33;100.00;97519.31;6213364;28;97122;-68
2023/10/22 06:16:09;;;;;;;;;8.00;8.00;;;;;19.34;100.00;97521.75;6229680;28;96379;-68
2023/10/22 06:19:13;;;;;;;;;8.00;8.00;;;;;19.36;100.00;97519.47;6203712;28;99017;-68
2023/10/22 06:22:17;;;;;;;;;8.00;8.00;;;;;19.39;100.00;97520.81;6212804;28;96776;-68
2023/10/22 06:25:20;;;;;;;;;8.60;8.00;;;;;19.45;100.00;97539.50;6212431;28;100365;-71
2023/10/22 06:28:23;;;;;;;;;8.00;8.00;;;;;19.55;100.00;97545.88;6213557;28;97115;-69
2023/10/22 06:31:27;;;;;;;;;10.00;8.60;;;;;19.68;100.00;97543.03;6210018;28;96568;-67
2023/10/22 06:34:31;;;;;;;;;8.00;8.00;;;;;19.80;100.00;97548.72;6206223;28;97004;-68
2023/10/22 06:37:34;;;;;;;;;9.00;9.00;;;;;19.81;100.00;97547.63;6202136;28;96835;-67
2023/10/22 06:40:37;;;;;;;;;8.00;8.00;;;;;19.94;100.00;97545.13;6227881;28;96859;-68
2023/10/22 06:43:40;;;;;;;;;8.00;6.40;;;;;19.99;100.00;97553.97;6210631;28;99924;-68
2023/10/22 06:46:45;;;;;;;;;7.00;7.00;;;;;20.05;100.00;97554.63;6224914;28;99283;-68
2023/10/22 06:49:48;;;;;;;;;8.60;8.00;;;;;19.97;100.00;97547.22;6218128;28;96488;-68
2023/10/22 06:52:51;;;;;;;;;7.50;7.00;;;;;19.97;100.00;97553.50;6212664;28;96435;-68
2023/10/22 06:55:54;;;;;;;;;7.00;6.00;;;;;19.97;100.00;97552.69;6201152;28;96694;-73
2023/10/22 06:58:58;;;;;;;;;9.00;7.75;;;;;20.01;100.00;97559.13;6201985;28;97094;-72
2023/10/22 07:02:03;;;;;;;;;7.20;6.00;;;;;20.04;100.00;97545.63;6199847;28;96712;-74
2023/10/22 07:05:10;;;;;;;;;8.00;7.25;;;;;20.07;100.00;97544.19;6211040;28;96531;-74
2023/10/22 07:08:15;;;;;;;;;5.00;5.00;;;;;20.10;100.00;97554.50;6207090;28;96997;-74
2023/10/22 07:11:18;;;;;;;;;7.00;7.00;;;;;20.07;100.00;97563.34;6208299;28;96593;-73
2023/10/22 07:14:21;;;;;;;;;8.40;8.00;;;;;20.13;100.00;97570.31;6198476;28;97176;-74
2023/10/22 07:17:26;;;;;;;;;11.50;9.00;;;;;20.19;100.00;97574.50;6214518;28;97180;-74
2023/10/22 07:20:29;;;;;;;;;8.50;8.50;;;;;20.15;100.00;97574.31;6225505;28;96695;-73
2023/10/22 07:23:32;;;;;;;;;10.00;9.40;;;;;20.12;100.00;97566.75;6203930;28;98394;-74
2023/10/22 07:26:36;;;;;;;;;9.60;8.60;;;;;20.19;100.00;97578.03;6213123;28;96871;-73
2023/10/22 07:29:39;;;;;;;;;8.75;8.00;;;;;20.22;100.00;97571.94;6193937;28;96684;-73
2023/10/22 07:32:43;;;;;;;;;8.00;7.25;;;;;20.25;100.00;97574.03;6211041;28;97575;-73
2023/10/22 07:35:53;;;;;;;;;9.60;9.00;;;;;20.29;100.00;97580.50;6208959;28;96357;-73
2023/10/22 07:38:56;;;;;;;;;7.60;7.00;;;;;20.28;100.00;97561.69;6223307;28;98439;-73
2023/10/22 07:42:00;;;;;;;;;10.00;9.00;;;;;20.47;100.00;97577.88;6209793;28;97570;-73
2023/10/22 07:45:04;;;;;;;;;9.00;8.00;;;;;20.58;100.00;97585.44;6188290;28;99149;-73
2023/10/22 07:48:08;;;;;;;;;10.80;10.40;;;;;20.66;100.00;97581.13;6209971;28;98427;-72
2023/10/22 07:51:13;;;;;;;;;7.20;7.00;;;;;20.74;100.00;97580.34;6210160;28;97804;-73
2023/10/22 07:54:16;;;;;;;;;8.00;8.00;;;;;20.79;100.00;97585.66;6196968;28;96870;-72
2023/10/22 07:57:19;;;;;;;;;7.00;7.00;;;;;20.78;100.00;97581.31;6189727;28;98451;-74
2023/10/22 08:00:23;;;;;;;;;8.00;7.00;;;;;20.80;100.00;97570.03;6210246;28;96806;-73
2023/10/22 08:03:30;;;;;;;;;5.20;5.00;;;;;20.79;100.00;97561.03;6190453;28;96678;-74
2023/10/22 08:06:33;;;;;;;;;7.80;7.80;;;;;20.87;100.00;97527.34;6205136;28;96385;-70
2023/10/22 08:09:36;;;;;;;;;5.00;4.75;;;;;20.95;100.00;97515.59;6210230;28;97619;-70
2023/10/22 08:12:39;;;;;;;;;6.00;6.00;;;;;21.04;100.00;97535.59;6190814;28;97467;-70
2023/10/22 08:15:42;;;;;;;;;7.00;6.00;;;;;21.10;100.00;97541.72;6209032;28;96316;-69
2023/10/22 08:18:47;;;;;;;;;8.00;8.00;;;;;21.15;100.00;97539.66;6209290;28;96673;-70
2023/10/22 08:21:50;;;;;;;;;8.00;7.80;;;;;21.27;100.00;97536.25;6207555;28;96918;-70
2023/10/22 08:24:53;;;;;;;;;7.00;7.00;;;;;21.54;100.00;97532.34;6204513;28;96350;-70
2023/10/22 08:27:57;;;;;;;;;9.40;9.00;;;;;22.10;100.00;97535.91;6209829;28;96383;-70
2023/10/22 08:31:00;;;;;;;;;9.00;9.00;;;;;22.46;100.00;97542.53;6204165;28;96590;-70
2023/10/22 08:34:05;;;;;;;;;10.00;9.60;;;;;23.53;100.00;97561.22;6206382;28;97365;-70
2023/10/22 08:37:08;;;;;;;;;8.00;7.00;;;;;24.31;100.00;97574.16;6224603;28;96412;-70
2023/10/22 08:40:12;;;;;;;;;9.00;9.00;;;;;25.18;100.00;97589.19;6207084;28;96659;-70
2023/10/22 08:43:17;;;;;;;;;7.60;7.00;;;;;25.15;100.00;97597.34;6219635;28;96607;-70
2023/10/22 08:46:20;;;;;;;;;7.00;6.60;;;;;24.94;100.00;97587.28;6233415;28;98862;-70
2023/10/22 08:49:27;;;;;;;;;6.60;6.60;;;;;24.76;100.00;97585.09;6213908;28;96772;-70
2023/10/22 08:52:30;;;;;;;;;8.00;8.00;;;;;24.75;100.00;97587.03;6209950;28;96529;-70
2023/10/22 08:55:35;;;;;;;;;6.00;6.00;;;;;24.62;100.00;97579.94;6209400;28;96479;-70
2023/10/22 08:58:38;;;;;;;;;7.00;7.00;;;;;24.40;100.00;97580.38;6203781;28;98687;-70
2023/10/22 09:01:41;;;;;;;;;6.60;6.60;;;;;24.17;100.00;97585.50;6209133;28;97187;-69
2023/10/22 09:04:45;;;;;;;;;6.80;5.80;;;;;23.93;100.00;97591.75;6209935;28;96378;-70
2023/10/22 09:07:49;;;;;;;;;5.00;5.00;;;;;23.66;100.00;97592.31;6211991;28;96599;-69
2023/10/22 09:10:53;;;;;;;;;5.25;5.00;;;;;23.38;100.00;97596.75;6209931;28;96481;-70
2023/10/22 09:13:56;;;;;;;;;8.00;7.00;;;;;23.16;100.00;97597.91;6203473;28;97133;-71
2023/10/22 09:17:14;;;;;;;;;6.60;6.00;;;;;22.94;100.00;97596.25;6205499;28;97972;-69
2023/10/22 09:20:23;;;;;;;;;6.40;6.00;;;;;22.74;100.00;97595.09;6209617;28;96315;-69
2023/10/22 09:23:26;;;;;;;;;5.00;4.00;;;;;22.65;100.00;97602.53;6207441;28;96892;-70
2023/10/22 09:26:41;;;;;;;;;6.00;5.00;;;;;22.61;100.00;97592.56;6191655;28;98494;-71
2023/10/22 09:29:48;;;;;;;;;4.40;4.00;;;;;22.75;100.00;97604.94;6222191;28;97263;-69
2023/10/22 09:32:51;;;;;;;;;5.60;5.60;;;;;22.68;100.00;97579.09;6208408;28;96890;-68
2023/10/22 09:36:01;;;;;;;;;5.80;5.80;;;;;22.85;100.00;97592.75;6208917;28;96893;-68
2023/10/22 09:39:05;;;;;;;;;6.00;6.00;;;;;22.84;100.00;97599.41;6206150;28;96565;-69
2023/10/22 09:42:08;;;;;;;;;4.80;4.00;;;;;22.85;100.00;97593.56;6181463;28;97209;-69
2023/10/22 09:45:14;;;;;;;;;6.00;6.00;;;;;22.78;100.00;97595.22;6216774;28;96632;-70
2023/10/22 09:48:17;;;;;;;;;5.50;5.00;;;;;22.76;100.00;97600.25;6202726;28;97018;-69
2023/10/22 09:51:24;;;;;;;;;5.00;5.00;;;;;22.60;100.00;97604.66;6211483;28;97113;-69
2023/10/22 09:54:37;;;;;;;;;5.00;4.50;;;;;22.54;100.00;97606.78;6209096;28;96496;-69
2023/10/22 09:57:41;;;;;;;;;4.75;4.75;;;;;22.44;100.00;97612.66;6210766;28;98511;-68
2023/10/22 10:00:45;;;;;;;;;3.60;3.60;;;;;22.30;100.00;97615.63;6207794;28;98431;-68
2023/10/22 10:03:57;;;;;;;;;5.00;5.00;;;;;22.38;100.00;97611.25;6211089;28;96450;-69
2023/10/22 10:07:04;;;;;;;;;3.00;3.00;;;;;22.44;100.00;97613.47;6220897;28;96790;-68
2023/10/22 10:10:09;;;;;;;;;5.00;5.00;;;;;22.43;100.00;97614.59;6219307;28;96628;-68
2023/10/22 10:13:13;;;;;;;;;7.33;7.00;;;;;22.53;100.00;97621.66;6213543;28;96587;-68
2023/10/22 10:16:16;;;;;;;;;7.00;7.00;;;;;22.56;100.00;97614.72;6210506;28;97203;-69
2023/10/22 10:19:21;;;;;;;;;8.00;8.00;;;;;22.56;100.00;97620.19;6193607;28;98488;-68
2023/10/22 10:22:44;;;;;;;;;6.50;6.50;;;;;22.42;100.00;97623.19;6212224;28;96730;-69
2023/10/22 10:25:49;;;;;;;;;6.60;6.00;;;;;22.30;100.00;97621.09;6211426;28;97111;-68
2023/10/22 10:28:53;;;;;;;;;6.25;6.00;;;;;22.22;100.00;97626.63;6226403;27;96443;-68
2023/10/22 10:32:15;;;;;;;;;6.00;6.00;;;;;22.22;100.00;97635.69;6215205;28;96617;-68
2023/10/22 10:35:19;;;;;;;;;8.80;8.80;;;;;22.09;100.00;97633.13;6212099;28;96912;-67
2023/10/22 10:38:24;;;;;;;;;8.00;7.25;;;;;22.08;100.00;97629.59;6213307;28;96223;-69
2023/10/22 10:41:51;;;;;;;;;9.00;8.00;;;;;22.04;100.00;97631.34;6206145;28;97061;-67
2023/10/22 10:45:07;;;;;;;;;8.00;7.00;;;;;22.04;100.00;97637.63;6202543;28;98540;-68
2023/10/22 10:48:43;;;;;;;;;7.00;6.00;;;;;21.92;100.00;97644.91;6203506;28;97962;-68
2023/10/22 10:51:59;;;;;;;;;8.00;8.00;;;;;21.55;100.00;97610.75;6211618;28;96937;-70
2023/10/22 10:55:09;;;;;;;;;9.00;7.00;;;;;21.74;100.00;97635.09;6215663;28;97961;-68
2023/10/22 10:58:12;;;;;;;;;9.00;9.00;;;;;21.70;100.00;97621.19;6211167;28;96333;-68
2023/10/22 11:01:16;;;;;;;;;7.00;6.25;;;;;21.68;100.00;97626.22;6212720;28;97577;-68
2023/10/22 11:04:19;;;;;;;;;7.00;7.00;;;;;21.44;100.00;97607.53;6209553;28;97375;-68
2023/10/22 11:07:24;;;;;;;;;9.40;8.60;;;;;21.52;100.00;97625.09;6201698;28;96478;-69
2023/10/22 11:10:30;;;;;;;;;10.00;10.00;;;;;21.44;100.00;97639.63;6210846;28;96295;-68
2023/10/22 11:13:34;;;;;;;;;8.00;7.60;;;;;21.38;100.00;97647.19;6218483;28;97054;-68
2023/10/22 11:16:51;;;;;;;;;10.00;9.00;;;;;21.42;100.00;97642.69;6221090;28;96675;-67
2023/10/22 11:19:54;;;;;;;;;7.40;7.40;;;;;21.31;100.00;97640.56;6217954;28;96587;-70
2023/10/22 11:22:58;;;;;;;;;10.40;10.40;;;;;21.32;100.00;97647.66;6207655;28;97504;-69
2023/10/22 11:26:02;;;;;;;;;10.40;9.00;;;;;21.30;100.00;97642.53;6206243;28;97303;-69
2023/10/22 11:29:05;;;;;;;;;12.00;11.60;;;;;21.10;100.00;97651.31;6210731;28;98473;-68
2023/10/22 11:32:12;;;;;;;;;10.60;10.60;;;;;21.07;100.00;97658.25;6205253;28;97293;-68
2023/10/22 11:35:15;;;;;;;;;12.00;10.20;;;;;20.79;100.00;97650.59;6211148;28;96604;-68
2023/10/22 11:38:22;;;;;;;;;9.20;9.00;;;;;20.87;100.00;97668.97;6209668;28;97123;-68
2023/10/22 11:41:26;;;;;;;;;11.00;11.00;;;;;20.85;100.00;97663.03;6207459;28;97318;-68
2023/10/22 11:44:33;;;;;;;;;12.00;11.20;;;;;20.72;100.00;97657.34;6203397;28;98171;-68
2023/10/22 11:47:37;;;;;;;;;12.80;11.80;;;;;20.73;100.00;97658.97;6209185;28;97279;-69
2023/10/22 11:50:45;;;;;;;;;14.00;11.60;;;;;20.54;100.00;97661.13;6208311;28;97795;-69
2023/10/22 11:53:48;;;;;;;;;12.00;11.00;;;;;20.58;100.00;97675.81;6207843;28;96727;-68
2023/10/22 11:56:53;;;;;;;;;13.00;13.00;;;;;20.56;100.00;97680.81;6210630;28;97455;-68
2023/10/22 11:59:56;;;;;;;;;14.00;13.40;;;;;20.42;100.00;97650.00;6227305;28;96835;-70
2023/10/22 12:02:59;;;;;;;;;12.00;11.00;;;;;20.56;100.00;97671.78;6210588;28;97782;-68
2023/10/22 12:06:02;;;;;;;;;11.50;10.50;;;;;20.57;100.00;97682.44;6211188;28;96830;-68
2023/10/22 12:09:05;;;;;;;;;14.00;13.00;;;;;20.51;100.00;97688.34;6209427;28;96424;-68
2023/10/22 12:12:10;;;;;;;;;11.60;10.60;;;;;20.28;100.00;97688.34;6209898;28;98807;-69
2023/10/22 12:15:13;;;;;;;;;10.00;10.00;;;;;20.06;100.00;97698.53;6211957;28;96579;-68
2023/10/22 12:18:17;;;;;;;;;6.00;5.00;;;;;19.81;100.00;97684.34;6181567;28;97080;-70
2023/10/22 12:21:20;;;;;;;;;9.00;8.00;;;;;19.62;100.00;97694.66;6202107;28;96496;-67
2023/10/22 12:24:23;;;;;;;;;8.00;7.00;;;;;19.56;100.00;97698.63;6207507;28;98438;-68
2023/10/22 12:27:31;;;;;;;;;10.00;10.00;;;;;19.31;100.00;97694.50;6204288;28;96723;-69
2023/10/22 12:30:34;;;;;;;;;9.00;8.00;;;;;19.24;100.00;97713.25;6222241;28;96996;-68
2023/10/22 12:33:38;;;;;;;;;7.00;7.00;;;;;18.98;100.00;97715.69;6206337;28;96898;-70
2023/10/22 12:36:41;;;;;;;;;8.00;8.00;;;;;19.02;100.00;97735.81;6210651;28;96383;-71
2023/10/22 12:39:44;;;;;;;;;9.00;8.00;;;;;18.90;100.00;97730.06;6211037;28;96382;-69
2023/10/22 12:42:49;;;;;;;;;7.00;7.00;;;;;18.94;100.00;97736.53;6210857;28;96585;-69
2023/10/22 12:45:52;;;;;;;;;6.60;6.60;;;;;18.79;100.00;97739.56;6209778;28;96504;-69
2023/10/22 12:48:55;;;;;;;;;7.00;6.00;;;;;18.67;100.00;97743.91;6211898;28;96738;-70
2023/10/22 12:51:59;;;;;;;;;7.40;7.40;;;;;18.78;100.00;97759.78;6223312;28;97147;-69
2023/10/22 12:55:02;;;;;;;;;3.60;3.00;;;;;18.78;100.00;97762.50;6210188;28;96740;-71
2023/10/22 12:58:06;;;;;;;;;7.60;7.60;;;;;18.79;100.00;97768.78;6208278;28;96409;-70
2023/10/22 13:01:10;;;;;;;;;7.00;7.00;;;;;18.72;100.00;97771.91;6227885;28;96420;-70
2023/10/22 13:04:13;;;;;;;;;6.40;6.40;;;;;18.71;100.00;97773.03;6215668;28;96732;-71
2023/10/22 13:07:16;;;;;;;;;5.00;4.00;;;;;18.55;100.00;97788.88;6210921;28;96496;-70
2023/10/22 13:10:20;;;;;;;;;5.00;5.00;;;;;18.41;100.00;97787.19;6222854;28;96542;-71
2023/10/22 13:13:24;;;;;;;;;7.00;6.60;;;;;18.34;100.00;97808.56;6205868;28;96668;-69
2023/10/22 13:16:27;;;;;;;;;6.20;6.00;;;;;18.25;100.00;97807.63;6207495;28;96410;-68
2023/10/22 13:19:30;;;;;;;;;4.00;4.00;;;;;18.27;100.00;97813.63;6212521;28;96934;-68
2023/10/22 13:22:34;;;;;;;;;6.00;6.00;;;;;18.14;100.00;97829.63;6211396;28;96468;-70
2023/10/22 13:25:37;;;;;;;;;4.00;4.00;;;;;18.07;100.00;97829.19;6214746;28;97612;-69
2023/10/22 13:28:42;;;;;;;;;5.00;5.00;;;;;18.02;100.00;97834.72;6187850;28;96722;-71
2023/10/22 13:31:45;;;;;;;;;4.00;4.00;;;;;18.04;100.00;97837.13;6210551;28;96639;-68
2023/10/22 13:34:48;;;;;;;;;5.40;4.40;;;;;18.13;100.00;97860.72;6210879;28;96977;-69
2023/10/22 13:37:52;;;;;;;;;4.00;3.00;;;;;18.14;100.00;97856.09;6212096;28;96904;-68
2023/10/22 13:40:55;;;;;;;;;3.60;3.60;;;;;18.22;100.00;97865.53;6211319;28;97100;-70
2023/10/22 13:43:59;;;;;;;;;3.00;2.40;;;;;18.29;100.00;97868.69;6210607;28;97584;-69
2023/10/22 13:47:03;;;;;;;;;4.00;4.00;;;;;18.15;100.00;97880.34;6211157;28;96948;-69
2023/10/22 13:50:08;;;;;;;;;4.00;4.00;;;;;18.17;100.00;97877.34;6194820;28;96772;-70
2023/10/22 13:53:13;;;;;;;;;4.00;4.00;;;;;18.26;100.00;97872.00;6219926;28;96741;-69
2023/10/22 13:56:16;;;;;;;;;4.40;4.40;;;;;18.26;100.00;97885.66;6215888;28;97027;-69
2023/10/22 13:59:20;;;;;;;;;4.00;4.00;;;;;18.27;100.00;97892.75;6222653;28;96601;-68
2023/10/22 14:02:24;;;;;;;;;4.20;3.20;;;;;18.21;100.00;97904.81;6221990;28;96511;-71
2023/10/22 14:05:27;;;;;;;;;3.60;3.60;;;;;18.09;100.00;97927.88;6213566;28;96515;-70
2023/10/22 14:08:30;;;;;;;;;5.00;5.00;;;;;18.06;100.00;97919.47;6213816;28;96319;-70
2023/10/22 14:11:34;;;;;;;;;8.60;8.00;;;;;18.02;100.00;97929.38;6211948;28;96847;-69